Map

Track Data

SID SEASON NUMBER BASIN SUBBASIN NAME ISO_TIME NATURE LAT LON WMO_WIND WMO_PRES WMO_AGENCY TRACK_TYPE DIST2LAND LANDFALL IFLAG USA_AGENCY USA_ATCF_ID USA_LAT USA_LON USA_RECORD USA_STATUS USA_WIND USA_PRES USA_SSHS USA_R34_NE USA_R34_SE USA_R34_SW USA_R34_NW USA_R50_NE USA_R50_SE USA_R50_SW USA_R50_NW USA_R64_NE USA_R64_SE USA_R64_SW USA_R64_NW USA_POCI USA_ROCI USA_RMW USA_EYE TOKYO_LAT TOKYO_LON TOKYO_GRADE TOKYO_WIND TOKYO_PRES TOKYO_R50_DIR TOKYO_R50_LONG TOKYO_R50_SHORT TOKYO_R30_DIR TOKYO_R30_LONG TOKYO_R30_SHORT TOKYO_LAND CMA_LAT CMA_LON CMA_CAT CMA_WIND CMA_PRES HKO_LAT HKO_LON HKO_CAT HKO_WIND HKO_PRES NEWDELHI_LAT NEWDELHI_LON NEWDELHI_GRADE NEWDELHI_WIND NEWDELHI_PRES NEWDELHI_CI NEWDELHI_DP NEWDELHI_POCI REUNION_LAT REUNION_LON REUNION_TYPE REUNION_WIND REUNION_PRES REUNION_TNUM REUNION_CI REUNION_RMW REUNION_R34_NE REUNION_R34_SE REUNION_R34_SW REUNION_R34_NW REUNION_R50_NE REUNION_R50_SE REUNION_R50_SW REUNION_R50_NW REUNION_R64_NE REUNION_R64_SE REUNION_R64_SW REUNION_R64_NW BOM_LAT BOM_LON BOM_TYPE BOM_WIND BOM_PRES BOM_TNUM BOM_CI BOM_RMW BOM_R34_NE BOM_R34_SE BOM_R34_SW BOM_R34_NW BOM_R50_NE BOM_R50_SE BOM_R50_SW BOM_R50_NW BOM_R64_NE BOM_R64_SE BOM_R64_SW BOM_R64_NW BOM_ROCI BOM_POCI BOM_EYE BOM_POS_METHOD BOM_PRES_METHOD NADI_LAT NADI_LON NADI_CAT NADI_WIND NADI_PRES WELLINGTON_LAT WELLINGTON_LON WELLINGTON_WIND WELLINGTON_PRES DS824_LAT DS824_LON DS824_STAGE DS824_WIND DS824_PRES TD9636_LAT TD9636_LON TD9636_STAGE TD9636_WIND TD9636_PRES TD9635_LAT TD9635_LON TD9635_WIND TD9635_PRES TD9635_ROCI NEUMANN_LAT NEUMANN_LON NEUMANN_CLASS NEUMANN_WIND NEUMANN_PRES MLC_LAT MLC_LON MLC_CLASS MLC_WIND MLC_PRES USA_GUST BOM_GUST BOM_GUST_PER REUNION_GUST REUNION_GUST_PER USA_SEAHGT USA_SEARAD_NE USA_SEARAD_SE USA_SEARAD_SW USA_SEARAD_NW STORM_SPEED STORM_DIR
1919238N13147 1919 28 WP MM NOT_NAMED 1919-08-25 22:00:00 NR 12.8000 146.900 main 1669 1669 __________O___ -1 12.8000 146.900 4 10 275
1919238N13147 1919 28 WP MM NOT_NAMED 1919-08-26 00:00:00 NR 12.8318 146.551 main 1669 1669 __________P___ -1 12.8318 146.551 4 10 275
1919238N13147 1919 28 WP MM NOT_NAMED 1919-08-26 03:00:00 NR 12.8797 146.028 main 1681 1681 __________P___ -1 12.8797 146.028 4 10 275
1919238N13147 1919 28 WP MM NOT_NAMED 1919-08-26 06:00:00 NR 12.9291 145.503 main 1684 1684 __________P___ -1 12.9291 145.503 4 10 276
1919238N13147 1919 28 WP MM NOT_NAMED 1919-08-26 09:00:00 NR 12.9816 144.976 main 1700 1702 __________P___ -1 12.9816 144.976 4 10 276
1919238N13147 1919 28 WP MM NOT_NAMED 1919-08-26 10:00:00 NR 13.0000 144.800 main 1703 1703 __________O___ -1 13.0000 144.800 4 10 276
1919238N13147 1919 28 WP MM NOT_NAMED 1919-08-26 12:00:00 NR 13.0387 144.447 main 1709 1709 __________P___ -1 13.0387 144.447 4 10 277
1919238N13147 1919 28 WP MM NOT_NAMED 1919-08-26 15:00:00 NR 13.1032 143.911 main 1728 1728 __________P___ -1 13.1032 143.911 4 11 278
1919238N13147 1919 28 WP MM NOT_NAMED 1919-08-26 18:00:00 NR 13.1781 143.362 main 1750 1737 __________P___ -1 13.1781 143.362 4 11 279
1919238N13147 1919 28 WP MM NOT_NAMED 1919-08-26 21:00:00 NR 13.2668 142.795 main 1744 1738 __________P___ -1 13.2668 142.795 4 11 279
1919238N13147 1919 28 WP MM NOT_NAMED 1919-08-26 22:00:00 NR 13.3000 142.600 main 1738 1729 __________O___ -1 13.3000 142.600 4 12 280
1919238N13147 1919 28 WP MM NOT_NAMED 1919-08-27 00:00:00 NR 13.3691 142.200 main 1736 1718 __________P___ -1 13.3691 142.200 4 12 281
1919238N13147 1919 28 WP MM NOT_NAMED 1919-08-27 03:00:00 NR 13.4855 141.582 main 1721 1666 __________P___ -1 13.4855 141.582 4 12 281
1919238N13147 1919 28 WP MM NOT_NAMED 1919-08-27 06:00:00 NR 13.6143 140.949 main 1666 1604 __________P___ -1 13.6143 140.949 4 13 282
1919238N13147 1919 28 WP MM NOT_NAMED 1919-08-27 09:00:00 NR 13.7524 140.312 main 1606 1584 __________P___ -1 13.7524 140.312 4 13 283
1919238N13147 1919 28 WP MM NOT_NAMED 1919-08-27 10:00:00 NR 13.8000 140.100 main 1584 1544 __________O___ -1 13.8000 140.100 4 13 283
1919238N13147 1919 28 WP MM NOT_NAMED 1919-08-27 12:00:00 NR 13.8968 139.670 main 1544 1472 __________P___ -1 13.8968 139.670 4 13 283
1919238N13147 1919 28 WP MM NOT_NAMED 1919-08-27 15:00:00 NR 14.0485 139.025 main 1472 1414 __________P___ -1 14.0485 139.025 4 13 284
1919238N13147 1919 28 WP MM NOT_NAMED 1919-08-27 18:00:00 NR 14.2024 138.394 main 1414 1352 __________P___ -1 14.2024 138.394 4 12 284
1919238N13147 1919 28 WP MM NOT_NAMED 1919-08-27 21:00:00 NR 14.3521 137.792 main 1354 1332 __________P___ -1 14.3521 137.792 4 12 284
1919238N13147 1919 28 WP MM NOT_NAMED 1919-08-27 22:00:00 NR 14.4000 137.600 main 1332 1292 __________O___ -1 14.4000 137.600 4 11 284
1919238N13147 1919 28 WP MM NOT_NAMED 1919-08-28 00:00:00 NR 14.4912 137.230 main 1292 1241 __________P___ -1 14.4912 137.230 4 11 284
1919238N13147 1919 28 WP MM NOT_NAMED 1919-08-28 03:00:00 NR 14.6222 136.707 main 1241 1190 __________P___ -1 14.6222 136.707 4 10 285
1919238N13147 1919 28 WP MM NOT_NAMED 1919-08-28 06:00:00 NR 14.7461 136.216 main 1190 1151 __________P___ -1 14.7461 136.216 4 10 285
1919238N13147 1919 28 WP MM NOT_NAMED 1919-08-28 09:00:00 NR 14.8628 135.750 main 1154 1133 __________P___ -1 14.8628 135.750 4 9 285
1919238N13147 1919 28 WP MM NOT_NAMED 1919-08-28 10:00:00 NR 14.9000 135.600 main 1133 1104 __________O___ -1 14.9000 135.600 4 9 284
1919238N13147 1919 28 WP MM NOT_NAMED 1919-08-28 12:00:00 NR 14.9665 135.318 main 1104 1066 __________P___ -1 14.9665 135.318 4 8 284
1919238N13147 1919 28 WP MM NOT_NAMED 1919-08-28 15:00:00 NR 15.0602 134.913 main 1066 1025 __________P___ -1 15.0602 134.913 4 8 284
1919238N13147 1919 28 WP MM NOT_NAMED 1919-08-28 18:00:00 NR 15.1552 134.505 main 1028 988 __________P___ -1 15.1552 134.505 4 8 284
1919238N13147 1919 28 WP MM NOT_NAMED 1919-08-28 21:00:00 NR 15.2608 134.061 main 991 971 __________P___ -1 15.2608 134.061 4 9 284
1919238N13147 1919 28 WP MM NOT_NAMED 1919-08-28 22:00:00 NR 15.3000 133.900 main 971 935 __________O___ -1 15.3000 133.900 4 11 284
1919238N13147 1919 28 WP MM NOT_NAMED 1919-08-29 00:00:00 NR 15.3888 133.532 main 935 880 __________P___ -1 15.3888 133.532 4 12 284
1919238N13147 1919 28 WP MM NOT_NAMED 1919-08-29 03:00:00 NR 15.5345 132.936 main 880 832 __________P___ -1 15.5345 132.936 4 12 284
1919238N13147 1919 28 WP MM NOT_NAMED 1919-08-29 06:00:00 NR 15.6895 132.314 main 832 781 __________P___ -1 15.6895 132.314 4 12 285
1919238N13147 1919 28 WP MM NOT_NAMED 1919-08-29 09:00:00 NR 15.8476 131.699 main 781 768 __________P___ -1 15.8476 131.699 4 12 285
1919238N13147 1919 28 WP MM NOT_NAMED 1919-08-29 10:00:00 NR 15.9000 131.500 main 768 738 __________O___ -1 15.9000 131.500 4 11 285
1919238N13147 1919 28 WP MM NOT_NAMED 1919-08-29 12:00:00 NR 15.9944 131.127 main 738 650 __________P___ -1 15.9944 131.127 4 18 278
1919238N13147 1919 28 WP MM NOT_NAMED 1919-08-29 15:00:00 NR 16.1089 129.970 main 650 576 __________P___ -1 16.1361 130.587 4 19 277
1919238N13147 1919 28 WP MM NOT_NAMED 1919-08-29 18:00:00 NR 16.2386 129.181 main 576 530 __________P___ -1 16.2837 130.067 4 13 282
1919238N13147 1919 28 WP MM NOT_NAMED 1919-08-29 21:00:00 NR 16.3871 128.600 main 530 512 __________P___ -1 16.4431 129.564 4 12 284
1919238N13147 1919 28 WP MM NOT_NAMED 1919-08-29 22:00:00 NR 16.4356 128.341 main 503 492 __________O___ -1 16.5000 129.400 4 10 291
1919238N13147 1919 28 WP MM NOT_NAMED 1919-08-30 00:00:00 NR 16.5585 128.137 main 498 480 __________P___ -1 16.6217 129.059 4 7 303
1919238N13147 1919 28 WP MM NOT_NAMED 1919-08-30 03:00:00 NR 16.7586 127.830 main 488 479 __________P___ -1 16.8172 128.559 4 7 305
1919238N13147 1919 28 WP MM NOT_NAMED 1919-08-30 06:00:00 NR 16.9713 127.524 main 479 472 __________P___ -1 17.0223 128.083 4 7 307
1919238N13147 1919 28 WP MM NOT_NAMED 1919-08-30 09:00:00 NR 17.1967 127.227 main 474 474 __________P___ -1 17.2308 127.639 4 7 309
1919238N13147 1919 28 WP MM NOT_NAMED 1919-08-30 10:00:00 NR 17.2738 127.132 main 475 469 __________O___ -1 17.3000 127.500 4 7 310
1919238N13147 1919 28 WP MM NOT_NAMED 1919-08-30 12:00:00 NR 17.4256 126.944 main 469 451 __________P___ -1 17.4278 127.230 4 7 312
1919238N13147 1919 28 WP MM NOT_NAMED 1919-08-30 15:00:00 NR 17.6598 126.678 main 452 425 __________P___ -1 17.6196 126.856 4 7 314
1919238N13147 1919 28 WP MM NOT_NAMED 1919-08-30 18:00:00 NR 17.8912 126.441 main 425 411 __________P___ -1 17.8172 126.515 4 7 317
1919238N13147 1919 28 WP MM NOT_NAMED 1919-08-30 21:00:00 NR 18.1369 126.215 main 411 412 __________P___ -1 18.0265 126.200 4 7 319
1919238N13147 1919 28 WP MM NOT_NAMED 1919-08-30 22:00:00 NR 18.2234 126.141 main 401 390 __________O___ -1 18.1000 126.100 4 7 321
1919238N13147 1919 28 WP MM NOT_NAMED 1919-08-31 00:00:00 NR 18.4054 125.987 main 390 369 __________P___ -1 18.2551 125.897 4 7 323
1919238N13147 1919 28 WP MM NOT_NAMED 1919-08-31 03:00:00 NR 18.7002 125.755 main 370 343 __________P___ -1 18.5004 125.611 4 8 323
1919238N13147 1919 28 WP MM NOT_NAMED 1919-08-31 06:00:00 NR 19.0142 125.510 main 343 328 __________P___ -1 18.7556 125.342 4 8 324
1919238N13147 1919 28 WP MM NOT_NAMED 1919-08-31 09:00:00 NR 19.3484 125.257 main 331 324 __________P___ -1 19.0141 125.085 4 8 325
1919238N13147 1919 28 WP MM NOT_NAMED 1919-08-31 10:00:00 NR 19.4634 125.171 main 328 314 __________O___ -1 19.1000 125.000 4 9 325
1919238N13147 1919 28 WP MM NOT_NAMED 1919-08-31 12:00:00 NR 19.7016 124.992 main 318 311 __________P___ -1 19.2771 124.817 4 9 325
1919238N13147 1919 28 WP MM NOT_NAMED 1919-08-31 15:00:00 NR 20.0716 124.725 main 315 314 __________P___ -1 19.5431 124.549 4 9 327
1919238N13147 1919 28 WP MM NOT_NAMED 1919-08-31 18:00:00 NR 20.4595 124.465 main 329 321 __________P___ -1 19.7983 124.296 4 9 329
1919238N13147 1919 28 WP MM NOT_NAMED 1919-08-31 21:00:00 NR 20.8476 124.220 main 334 343 __________P___ -1 20.0301 124.069 4 9 330
1919238N13147 1919 28 WP MM NOT_NAMED 1919-08-31 22:00:00 NR 20.9732 124.143 main 346 329 __________O___ -1 20.1000 124.000 4 8 330
1919238N13147 1919 28 WP MM NOT_NAMED 1919-09-01 00:00:00 NR 21.2084 124.001 main 329 302 __________P___ -1 20.2148 123.879 4 8 331
1919238N13147 1919 28 WP MM NOT_NAMED 1919-09-01 03:00:00 NR 21.5309 123.812 main 302 277 __________P___ -1 20.3617 123.724 4 7 330
1919238N13147 1919 28 WP MM NOT_NAMED 1919-09-01 06:00:00 NR 21.7713 123.651 main 277 253 __________P___ -1 20.4978 123.586 4 4 313
1919238N13147 1919 28 WP MM NOT_NAMED 1919-09-01 09:00:00 NR 21.8084 123.496 main 260 258 __________P___ -1 20.6448 123.448 4 4 233
1919238N13147 1919 28 WP MM NOT_NAMED 1919-09-01 10:00:00 NR 21.6237 123.438 main 260 254 __________O___ -1 20.7000 123.400 4 9 203
1919238N13147 1919 28 WP MM NOT_NAMED 1919-09-01 12:00:00 NR 21.3894 123.306 main 254 244 __________P___ -1 20.8067 123.276 4 9 207
1919238N13147 1919 28 WP MM NOT_NAMED 1919-09-01 15:00:00 NR 20.9851 123.083 main 248 221 __________P___ -1 20.9851 123.083 4 4 244
1919238N13147 1919 28 WP MM NOT_NAMED 1919-09-01 18:00:00 NR 21.2049 122.899 main 221 191 __________P___ -1 21.2049 122.899 4 6 328
1919238N13147 1919 28 WP MM NOT_NAMED 1919-09-01 21:00:00 NR 21.4878 122.743 main 191 188 __________P___ -1 21.4878 122.743 4 7 335
1919238N13147 1919 28 WP MM NOT_NAMED 1919-09-01 22:00:00 NR 21.6000 122.700 main 188 175 __________O___ -1 21.6000 122.700 4 7 345
1919238N13147 1919 28 WP MM NOT_NAMED 1919-09-02 00:00:00 NR 21.8359 122.635 main 175 152 __________P___ -1 21.8359 122.635 4 8 350
1919238N13147 1919 28 WP MM NOT_NAMED 1919-09-02 03:00:00 NR 22.2525 122.570 main 152 121 __________P___ -1 22.2525 122.570 4 9 354
1919238N13147 1919 28 WP MM NOT_NAMED 1919-09-02 06:00:00 NR 22.7413 122.531 main 121 111 __________P___ -1 22.7413 122.531 4 11 357
1919238N13147 1919 28 WP MM NOT_NAMED 1919-09-02 09:00:00 NR 23.2992 122.507 main 111 104 __________P___ -1 23.2992 122.507 4 11 357
1919238N13147 1919 28 WP MM NOT_NAMED 1919-09-02 10:00:00 NR 23.5000 122.500 main 104 90 __________O___ -1 23.5000 122.500 4 13 0
1919238N13147 1919 28 WP MM NOT_NAMED 1919-09-02 12:00:00 NR 23.9225 122.485 main 90 60 __________P___ -1 23.9225 122.485 4 13 358
1919238N13147 1919 28 WP MM NOT_NAMED 1919-09-02 15:00:00 NR 24.5999 122.461 main 61 40 __________P___ -1 24.5999 122.461 4 14 359
1919238N13147 1919 28 WP MM NOT_NAMED 1919-09-02 18:00:00 NR 25.3153 122.436 main 52 60 __________P___ -1 25.3153 122.436 4 15 358
1919238N13147 1919 28 WP MM NOT_NAMED 1919-09-02 21:00:00 NR 26.0524 122.409 main 128 128 __________P___ -1 26.0524 122.409 4 15 358
1919238N13147 1919 28 WP MM NOT_NAMED 1919-09-02 22:00:00 NR 26.3000 122.400 main 146 __________O___ -1 26.3000 122.400 4 15 0

Digital Typhoon Data and Search

About IBTrACS Database

This database is a web-friendly format of International Best Track Archive for Climate Stewardship (IBTrACS), a global best track data archive curated by NOAA dating back to 1842.

Updated: 2021-10-19